Time;durP1;ratioP1;P1;durP2;ratioP2;P2;SDS_P1;SDS_P2;PMS_P1;PMS_P2;Temp;Humidity;BMP_temperature;BMP_pressure;BME280_temperature;BME280_humidity;BME280_pressure;Samples;Min_cycle;Max_cycle;Signal;HPM_P1;HPM_P2
2023/04/09 00:00:11;;;;;;;53.13;26.83;;;;;;;3.09;94.38;101967.63;5017216;28;20262;-86
2023/04/09 00:02:37;;;;;;;70.10;30.40;;;;;;;3.04;94.13;101965.94;5017682;28;20671;-85
2023/04/09 00:05:06;;;;;;;55.77;26.77;;;;;;;2.99;95.21;101966.00;5019230;28;20207;-85
2023/04/09 00:07:32;;;;;;;57.37;28.00;;;;;;;2.99;95.50;101967.75;5022448;28;20326;-82
2023/04/09 00:09:59;;;;;;;57.30;27.50;;;;;;;2.99;95.62;101971.25;5021490;28;20223;-84
2023/04/09 00:12:29;;;;;;;58.43;27.57;;;;;;;2.99;96.29;101966.00;5028383;28;20218;-82
2023/04/09 00:14:57;;;;;;;58.30;29.87;;;;;;;2.99;95.66;101960.72;5027861;28;20217;-85
2023/04/09 00:17:23;;;;;;;59.77;28.33;;;;;;;2.97;95.59;101956.38;5017907;28;20224;-85
2023/04/09 00:19:53;;;;;;;57.03;28.80;;;;;;;2.97;96.51;101965.13;5005952;28;20222;-83
2023/04/09 00:22:19;;;;;;;58.27;27.97;;;;;;;2.96;95.99;101963.41;5013294;28;20378;-84
2023/04/09 00:24:46;;;;;;;53.23;26.53;;;;;;;2.96;96.05;101966.03;5014923;28;20195;-83
2023/04/09 00:27:12;;;;;;;52.83;28.00;;;;;;;2.95;95.88;101960.78;5025194;28;20242;-83
2023/04/09 00:29:39;;;;;;;53.17;26.93;;;;;;;2.95;96.42;101958.16;5023603;28;20222;-84
2023/04/09 00:32:10;;;;;;;57.40;28.00;;;;;;;2.93;96.91;101952.03;5018769;28;20695;-88
2023/04/09 00:34:37;;;;;;;58.13;28.57;;;;;;;2.92;97.04;101950.28;5017730;28;20225;-85
2023/04/09 00:37:04;;;;;;;57.53;31.30;;;;;;;2.93;96.64;101950.25;5019284;28;20312;-85
2023/04/09 00:39:30;;;;;;;75.07;34.83;;;;;;;2.95;97.21;101955.50;5025817;28;20206;-83
2023/04/09 00:42:01;;;;;;;77.97;37.40;;;;;;;2.95;97.26;101951.13;5009940;28;20564;-83
2023/04/09 00:44:27;;;;;;;84.13;37.63;;;;;;;2.96;97.35;101942.34;5026320;28;20216;-83
2023/04/09 00:46:54;;;;;;;84.73;36.87;;;;;;;2.97;97.87;101944.09;5008302;28;20231;-87
2023/04/09 00:49:25;;;;;;;97.83;39.83;;;;;;;3.00;97.70;101949.31;5014887;28;20252;-86
2023/04/09 00:51:52;;;;;;;87.80;35.40;;;;;;;3.00;98.45;101951.94;5012658;28;20767;-84
2023/04/09 00:54:19;;;;;;;78.93;35.00;;;;;;;3.01;98.31;101956.31;5004269;28;20225;-84
2023/04/09 00:56:46;;;;;;;199.50;39.90;;;;;;;3.00;99.01;101948.44;5007645;28;20223;-84
2023/04/09 00:59:13;;;;;;;85.87;36.13;;;;;;;2.97;98.37;101949.34;5006406;28;20222;-85
2023/04/09 01:01:39;;;;;;;91.27;38.50;;;;;;;2.96;98.86;101952.00;5006195;28;20214;-83
2023/04/09 01:04:06;;;;;;;79.77;35.73;;;;;;;2.95;98.94;101945.00;5017350;28;20207;-83
2023/04/09 01:06:41;;;;;;;72.07;36.83;;;;;;;2.95;98.98;101955.50;5017351;28;20214;-83
2023/04/09 01:09:18;;;;;;;107.87;39.97;;;;;;;2.95;99.28;101959.00;5011176;28;20218;-82
2023/04/09 01:11:55;;;;;;;90.53;39.17;;;;;;;2.97;99.43;101961.63;5015847;28;20220;-83
2023/04/09 01:14:30;;;;;;;108.43;40.97;;;;;;;2.99;99.92;101967.75;5011518;28;20267;-84
2023/04/09 01:17:04;;;;;;;112.57;39.70;;;;;;;3.00;99.89;101961.59;5009526;28;20231;-85
2023/04/09 01:19:41;;;;;;;139.17;37.97;;;;;;;2.98;100.00;101958.13;5020613;28;20211;-83
2023/04/09 01:22:20;;;;;;;141.17;38.30;;;;;;;2.94;99.56;101959.03;5013015;28;20247;-82
2023/04/09 01:25:00;;;;;;;99.07;38.10;;;;;;;2.88;99.33;101957.31;5012539;28;20238;-82
2023/04/09 01:27:33;;;;;;;103.73;38.40;;;;;;;2.82;100.00;101953.91;5022977;28;20234;-84
2023/04/09 01:30:07;;;;;;;121.20;40.43;;;;;;;2.77;100.00;101962.72;5021272;28;20234;-82
2023/04/09 01:32:36;;;;;;;73.87;34.07;;;;;;;2.73;99.93;101960.13;5020552;28;20232;-82
2023/04/09 01:35:14;;;;;;;136.10;40.47;;;;;;;2.70;99.67;101950.50;5018551;28;20199;-83
2023/04/09 01:37:41;;;;;;;147.93;40.53;;;;;;;2.67;100.00;101953.19;5023305;28;20236;-82
2023/04/09 01:40:09;;;;;;;119.90;40.23;;;;;;;2.64;100.00;101955.84;5022243;28;20562;-83
2023/04/09 01:42:37;;;;;;;101.23;35.20;;;;;;;2.62;100.00;101947.09;5015776;28;20211;-83
2023/04/09 01:45:06;;;;;;;107.90;38.07;;;;;;;2.58;100.00;101950.63;5017247;28;20207;-83
2023/04/09 01:47:34;;;;;;;124.93;39.33;;;;;;;2.57;100.00;101959.41;5022419;28;20227;-81
2023/04/09 01:50:01;;;;;;;137.20;36.77;;;;;;;2.56;100.00;101956.78;5020814;28;20218;-81
2023/04/09 01:52:28;;;;;;;116.37;34.13;;;;;;;2.53;100.00;101952.44;5024280;28;20221;-83
2023/04/09 01:54:55;;;;;;;67.07;34.47;;;;;;;2.51;100.00;101956.00;5011944;28;20454;-81
2023/04/09 01:57:21;;;;;;;91.37;34.80;;;;;;;2.51;100.00;101956.81;5016753;28;20226;-84
2023/04/09 01:59:48;;;;;;;62.83;31.80;;;;;;;2.52;100.00;101955.06;5012691;28;20203;-83
2023/04/09 02:02:23;;;;;;;90.77;35.43;;;;;;;2.52;100.00;101955.94;5015608;28;20207;-83
2023/04/09 02:04:53;;;;;;;120.27;35.67;;;;;;;2.50;100.00;101954.25;5015316;28;20213;-82
2023/04/09 02:07:30;;;;;;;115.73;34.03;;;;;;;2.48;100.00;101961.28;5013563;28;20222;-83
2023/04/09 02:09:59;;;;;;;83.30;32.57;;;;;;;2.44;100.00;101953.41;5017814;28;20227;-82
2023/04/09 02:12:27;;;;;;;108.43;34.83;;;;;;;2.44;100.00;101952.53;5010453;28;20470;-82
2023/04/09 02:14:53;;;;;;;82.67;34.47;;;;;;;2.42;100.00;101949.03;5016573;28;20203;-82
2023/04/09 02:17:21;;;;;;;56.43;31.57;;;;;;;2.41;100.00;101956.06;5006277;28;20223;-82
2023/04/09 02:19:48;;;;;;;88.57;34.17;;;;;;;2.42;100.00;101955.16;5010191;28;20218;-83
2023/04/09 02:22:15;;;;;;;91.43;32.90;;;;;;;2.42;100.00;101949.03;5011459;28;20711;-82
2023/04/09 02:24:42;;;;;;;48.07;30.30;;;;;;;2.41;100.00;101949.94;5015471;28;20207;-84
2023/04/09 02:27:08;;;;;;;106.70;37.47;;;;;;;2.42;100.00;101947.28;5002851;28;20232;-82
2023/04/09 02:29:35;;;;;;;103.03;35.20;;;;;;;2.41;100.00;101947.28;5009517;28;20207;-81
2023/04/09 02:32:01;;;;;;;103.67;39.93;;;;;;;2.39;100.00;101943.81;5014813;28;20199;-82
2023/04/09 02:34:29;;;;;;;88.03;39.40;;;;;;;2.36;100.00;101947.31;5023093;28;20682;-84
2023/04/09 02:36:56;;;;;;;89.70;39.60;;;;;;;2.34;100.00;101945.59;5015967;28;20230;-84
2023/04/09 02:39:22;;;;;;;94.17;39.20;;;;;;;2.34;100.00;101943.84;5011113;28;20204;-82
2023/04/09 02:41:49;;;;;;;95.40;40.40;;;;;;;2.32;100.00;101939.50;5004920;28;20203;-85
2023/04/09 02:44:15;;;;;;;91.00;38.73;;;;;;;2.31;100.00;101943.03;5005469;28;20233;-83
2023/04/09 02:46:42;;;;;;;76.10;36.17;;;;;;;2.28;100.00;101932.53;5013825;28;20227;-83
2023/04/09 02:49:08;;;;;;;65.43;35.33;;;;;;;2.25;100.00;101935.19;5010441;28;20206;-83
2023/04/09 02:51:36;;;;;;;72.50;35.67;;;;;;;2.25;100.00;101933.41;5012060;28;20229;-82
2023/04/09 02:54:04;;;;;;;52.47;33.03;;;;;;;2.26;100.00;101935.16;5016542;28;20202;-84
2023/04/09 02:56:30;;;;;;;62.00;32.73;;;;;;;2.27;100.00;101922.91;5011908;28;20266;-82
2023/04/09 02:58:56;;;;;;;51.33;31.43;;;;;;;2.28;100.00;101924.63;5006311;28;20207;-82
2023/04/09 03:01:23;;;;;;;56.27;32.27;;;;;;;2.27;100.00;101922.91;5014548;28;20194;-81
2023/04/09 03:03:49;;;;;;;90.70;36.33;;;;;;;2.26;100.00;101918.53;5010970;28;20759;-83
2023/04/09 03:06:17;;;;;;;66.53;34.97;;;;;;;2.23;100.00;101915.91;5016334;28;20210;-82
2023/04/09 03:08:45;;;;;;;60.63;31.67;;;;;;;2.20;100.00;101924.69;5011618;28;20261;-82
2023/04/09 03:11:11;;;;;;;59.90;33.20;;;;;;;2.17;100.00;101923.84;5008647;28;20230;-83
2023/04/09 03:13:37;;;;;;;55.60;33.17;;;;;;;2.16;100.00;101924.72;5016420;28;20217;-82
2023/04/09 03:16:05;;;;;;;72.70;34.00;;;;;;;2.12;100.00;101917.78;5012773;28;20589;-83
2023/04/09 03:18:31;;;;;;;64.80;34.43;;;;;;;2.07;100.00;101918.69;5017095;28;20230;-82
2023/04/09 03:20:57;;;;;;;82.50;39.47;;;;;;;2.03;100.00;101909.06;5015854;28;20210;-83
2023/04/09 03:23:24;;;;;;;78.27;38.90;;;;;;;1.99;100.00;101915.22;5010769;28;20248;-83
2023/04/09 03:26:01;;;;;;;81.43;37.23;;;;;;;1.95;100.00;101908.28;5016364;28;21341;-84
2023/04/09 03:28:28;;;;;;;63.93;33.17;;;;;;;1.91;100.00;101913.56;5008987;28;20230;-84
2023/04/09 03:30:54;;;;;;;146.03;43.00;;;;;;;1.86;100.00;101916.22;5016146;28;20219;-82
2023/04/09 03:33:21;;;;;;;98.63;38.80;;;;;;;1.83;100.00;101916.22;5017975;28;20206;-83
2023/04/09 03:35:47;;;;;;;88.93;37.33;;;;;;;1.79;100.00;101918.91;5018536;28;20207;-82
2023/04/09 03:38:14;;;;;;;63.23;34.27;;;;;;;1.75;100.00;101918.06;5007367;28;20950;-83
2023/04/09 03:40:41;;;;;;;90.53;39.90;;;;;;;1.74;100.00;101918.94;5012726;28;20245;-83
2023/04/09 03:43:09;;;;;;;54.83;32.30;;;;;;;1.74;100.00;101921.56;5017135;28;20226;-84
2023/04/09 03:45:35;;;;;;;89.30;34.70;;;;;;;1.77;100.00;101925.94;5015361;28;20206;-82
2023/04/09 03:48:02;;;;;;;92.50;35.80;;;;;;;1.76;100.00;101924.19;5003532;28;20234;-82
2023/04/09 03:50:28;;;;;;;110.67;36.37;;;;;;;1.74;100.00;101932.94;5008649;28;20238;-83
2023/04/09 03:52:55;;;;;;;60.23;29.93;;;;;;;1.72;100.00;101923.31;5009997;28;20225;-83
2023/04/09 03:55:21;;;;;;;73.83;30.97;;;;;;;1.69;100.00;101932.09;5012490;28;20215;-82
2023/04/09 03:57:48;;;;;;;51.20;29.67;;;;;;;1.69;100.00;101923.34;5010543;28;20230;-82
2023/04/09 04:00:16;;;;;;;56.07;30.17;;;;;;;1.71;100.00;101922.44;5007604;28;20199;-84
2023/04/09 04:02:42;;;;;;;47.23;28.17;;;;;;;1.73;100.00;101923.31;5013606;28;20208;-83
2023/04/09 04:05:10;;;;;;;58.47;27.17;;;;;;;1.75;100.00;101925.94;5014599;28;20207;-83
2023/04/09 04:07:36;;;;;;;60.53;28.63;;;;;;;1.74;100.00;101929.44;5015973;28;20234;-83
2023/04/09 04:10:04;;;;;;;74.27;29.33;;;;;;;1.71;100.00;101930.31;5016627;28;20720;-81
2023/04/09 04:12:31;;;;;;;66.63;28.73;;;;;;;1.67;100.00;101928.59;5019576;28;20678;-82
2023/04/09 04:14:58;;;;;;;42.10;26.90;;;;;;;1.68;100.00;101926.84;5013637;28;20203;-83
2023/04/09 04:17:25;;;;;;;66.70;28.03;;;;;;;1.68;100.00;101929.47;5013502;28;20684;-83
2023/04/09 04:19:52;;;;;;;44.20;27.10;;;;;;;1.67;100.00;101928.59;5018192;28;20207;-82
2023/04/09 04:22:18;;;;;;;85.50;29.37;;;;;;;1.70;100.00;101936.47;5009795;28;20211;-83
2023/04/09 04:24:45;;;;;;;42.27;26.53;;;;;;;1.70;100.00;101931.22;5010732;28;20789;-82
2023/04/09 04:27:11;;;;;;;53.80;27.13;;;;;;;1.73;100.00;101938.19;5009823;28;20245;-82
2023/04/09 04:29:38;;;;;;;49.97;27.83;;;;;;;1.76;100.00;101937.31;5016068;28;20202;-82
2023/04/09 04:32:05;;;;;;;73.20;28.83;;;;;;;1.77;100.00;101939.94;5018973;28;20229;-82
2023/04/09 04:34:33;;;;;;;67.63;29.27;;;;;;;1.75;100.00;101939.06;5015454;28;20213;-82
2023/04/09 04:37:00;;;;;;;72.07;30.33;;;;;;;1.76;100.00;101940.81;5019774;28;20229;-83
2023/04/09 04:39:26;;;;;;;59.60;28.80;;;;;;;1.78;100.00;101946.06;5014711;28;20211;-82
2023/04/09 04:41:53;;;;;;;60.90;30.37;;;;;;;1.77;100.00;101941.69;5015497;28;20226;-82
2023/04/09 04:44:19;;;;;;;68.83;30.97;;;;;;;1.78;100.00;101944.31;5011096;28;20214;-83
2023/04/09 04:46:46;;;;;;;55.20;27.70;;;;;;;1.78;100.00;101944.31;5005489;28;20213;-82
2023/04/09 04:49:12;;;;;;;73.47;30.37;;;;;;;1.77;100.00;101945.19;5010172;28;20207;-82
2023/04/09 04:51:40;;;;;;;83.43;31.73;;;;;;;1.77;100.00;101946.94;5016749;28;20599;-81
2023/04/09 04:54:06;;;;;;;76.03;29.73;;;;;;;1.76;100.00;101953.94;5008939;28;20206;-82
2023/04/09 04:56:33;;;;;;;78.03;30.97;;;;;;;1.76;100.00;101953.94;5019446;28;20202;-81
2023/04/09 04:59:00;;;;;;;74.40;30.67;;;;;;;1.73;100.00;101959.22;5004474;28;20219;-84
2023/04/09 05:01:27;;;;;;;79.70;30.67;;;;;;;1.71;100.00;101959.22;5013730;28;20202;-81
2023/04/09 05:03:53;;;;;;;68.27;27.63;;;;;;;1.68;100.00;101960.97;5016160;28;20214;-81
2023/04/09 05:06:20;;;;;;;72.20;28.40;;;;;;;1.64;100.00;101956.63;5012674;28;20202;-85
2023/04/09 05:08:47;;;;;;;84.70;27.57;;;;;;;1.61;100.00;101952.25;5006586;28;20247;-82
2023/04/09 05:11:15;;;;;;;80.57;27.90;;;;;;;1.59;100.00;101963.69;5015800;28;20222;-83
2023/04/09 05:13:42;;;;;;;85.27;27.73;;;;;;;1.57;100.00;101957.56;5010041;28;20293;-81
2023/04/09 05:16:08;;;;;;;91.80;27.37;;;;;;;1.57;100.00;101960.19;5017865;28;20198;-83
2023/04/09 05:18:35;;;;;;;78.20;27.37;;;;;;;1.56;100.00;101969.81;5008166;28;20259;-82
2023/04/09 05:21:01;;;;;;;100.67;27.10;;;;;;;1.56;100.00;101971.56;5015002;28;20215;-81
2023/04/09 05:23:28;;;;;;;86.90;26.70;;;;;;;1.55;100.00;101967.19;5011145;28;20207;-83
2023/04/09 05:25:56;;;;;;;140.53;29.60;;;;;;;1.55;100.00;101967.19;5006458;28;20203;-83
2023/04/09 05:28:22;;;;;;;83.07;27.00;;;;;;;1.55;100.00;101964.56;5012234;28;20235;-82
2023/04/09 05:30:49;;;;;;;60.77;23.50;;;;;;;1.54;100.00;101965.44;5013211;28;20230;-80
2023/04/09 05:33:15;;;;;;;66.57;26.27;;;;;;;1.54;100.00;101965.44;5009290;28;20209;-80
2023/04/09 05:35:42;;;;;;;70.73;24.70;;;;;;;1.53;100.00;101968.94;5016185;28;20198;-84
2023/04/09 05:38:08;;;;;;;68.90;22.70;;;;;;;1.53;100.00;101963.69;5010207;28;20699;-81
2023/04/09 05:40:35;;;;;;;68.57;23.30;;;;;;;1.53;100.00;101967.19;5010544;28;20622;-82
2023/04/09 05:43:03;;;;;;;64.03;23.03;;;;;;;1.51;100.00;101965.47;5014166;28;20486;-81
2023/04/09 05:45:29;;;;;;;71.17;23.37;;;;;;;1.51;100.00;101975.97;5010083;28;21071;-81
2023/04/09 05:47:56;;;;;;;93.07;24.90;;;;;;;1.51;100.00;101968.09;5009108;28;20238;-80
2023/04/09 05:50:22;;;;;;;58.00;26.13;;;;;;;1.52;100.00;101959.31;5013187;28;20199;-81
2023/04/09 05:52:49;;;;;;;89.60;26.07;;;;;;;1.54;100.00;101970.69;5020538;28;20234;-81
2023/04/09 05:55:15;;;;;;;58.03;24.10;;;;;;;1.55;100.00;101968.06;5016297;28;20222;-82
2023/04/09 05:57:44;;;;;;;130.47;26.77;;;;;;;1.56;100.00;101968.94;5016801;28;20317;-82
2023/04/09 06:00:13;;;;;;;101.97;28.10;;;;;;;1.57;100.00;101962.81;5018105;28;20298;-82
2023/04/09 06:02:40;;;;;;;144.07;33.50;;;;;;;1.59;100.00;101969.81;5017552;28;20256;-82
2023/04/09 06:05:07;;;;;;;77.47;28.63;;;;;;;1.61;100.00;101968.00;5022063;28;20222;-82
2023/04/09 06:07:37;;;;;;;80.10;27.53;;;;;;;1.63;100.00;101970.63;5021114;28;20269;-83
2023/04/09 06:10:03;;;;;;;81.23;29.63;;;;;;;1.67;100.00;101972.38;5016714;28;20207;-82
2023/04/09 06:12:30;;;;;;;78.97;28.87;;;;;;;1.70;100.00;101967.97;5019337;28;20587;-82
2023/04/09 06:14:56;;;;;;;73.33;30.93;;;;;;;1.73;100.00;101969.72;5021065;28;20207;-83
2023/04/09 06:17:24;;;;;;;75.80;31.13;;;;;;;1.77;100.00;101975.84;5017159;28;20226;-81
2023/04/09 06:19:50;;;;;;;71.10;30.10;;;;;;;1.80;100.00;101981.03;5011245;28;20199;-81
2023/04/09 06:22:17;;;;;;;48.10;27.57;;;;;;;1.84;100.00;101970.50;5019034;28;20219;-80
2023/04/09 06:24:43;;;;;;;62.43;32.37;;;;;;;1.88;100.00;101979.25;5011777;28;20208;-80
2023/04/09 06:27:10;;;;;;;50.63;28.50;;;;;;;1.92;100.00;101968.72;5013720;28;20253;-82
2023/04/09 06:29:36;;;;;;;44.93;28.80;;;;;;;1.97;100.00;101977.41;5017551;28;20206;-84
2023/04/09 06:32:04;;;;;;;49.37;30.03;;;;;;;2.00;100.00;101976.53;5010023;28;20230;-84
2023/04/09 06:34:32;;;;;;;49.20;30.97;;;;;;;2.05;100.00;101985.25;5013192;28;20213;-82
2023/04/09 06:36:58;;;;;;;50.40;30.17;;;;;;;2.10;100.00;101980.84;5015650;28;20226;-84
2023/04/09 06:39:25;;;;;;;54.93;30.10;;;;;;;2.14;100.00;101981.72;5014367;28;20206;-83
2023/04/09 06:41:52;;;;;;;46.30;28.90;;;;;;;2.19;100.00;101982.53;5013056;28;20199;-82
2023/04/09 06:44:18;;;;;;;44.90;29.23;;;;;;;2.25;100.00;101985.13;5006616;28;20585;-84
2023/04/09 06:46:45;;;;;;;46.93;28.07;;;;;;;2.30;100.00;101978.06;5011770;28;20199;-84
2023/04/09 06:49:11;;;;;;;53.67;30.03;;;;;;;2.35;100.00;101971.00;5014484;28;20225;-83
2023/04/09 06:51:39;;;;;;;44.37;27.97;;;;;;;2.41;100.00;101978.84;5017628;28;20223;-83
2023/04/09 06:54:06;;;;;;;45.50;28.80;;;;;;;2.48;100.00;101975.28;5019968;28;20207;-85
2023/04/09 06:56:34;;;;;;;47.03;27.87;;;;;;;2.55;100.00;101982.22;5018462;28;20207;-84
2023/04/09 06:59:01;;;;;;;45.70;28.87;;;;;;;2.63;100.00;101983.03;5022086;28;20203;-83
2023/04/09 07:01:27;;;;;;;42.73;27.57;;;;;;;2.70;100.00;101974.19;5013727;28;20286;-83
2023/04/09 07:03:54;;;;;;;48.20;28.00;;;;;;;2.77;100.00;101978.50;5015718;28;20721;-83
2023/04/09 07:06:20;;;;;;;47.40;27.67;;;;;;;2.85;100.00;101988.97;5021881;28;20199;-83
2023/04/09 07:08:48;;;;;;;43.10;27.80;;;;;;;2.90;100.00;101986.25;5020540;28;20223;-83
2023/04/09 07:11:16;;;;;;;41.43;27.23;;;;;;;2.97;100.00;101985.31;5017091;28;20237;-82
2023/04/09 07:13:42;;;;;;;43.80;26.97;;;;;;;3.04;100.00;101980.00;5018102;28;20207;-82
2023/04/09 07:16:09;;;;;;;46.67;28.60;;;;;;;3.10;100.00;101979.03;5019944;28;20207;-82
2023/04/09 07:18:35;;;;;;;49.53;28.43;;;;;;;3.17;100.00;101983.34;5014546;28;20227;-83
2023/04/09 07:21:01;;;;;;;45.27;28.60;;;;;;;3.23;100.00;101977.97;5013921;28;20218;-82
2023/04/09 07:23:30;;;;;;;42.10;27.37;;;;;;;3.31;100.00;101988.44;5013785;28;20214;-83
2023/04/09 07:25:58;;;;;;;45.37;28.87;;;;;;;3.37;100.00;101985.75;5012276;28;20203;-83
2023/04/09 07:28:27;;;;;;;41.07;27.37;;;;;;;3.42;100.00;101990.03;5013392;28;20245;-82
2023/04/09 07:30:53;;;;;;;45.90;27.73;;;;;;;3.51;100.00;101994.31;5014681;28;20207;-84
2023/04/09 07:33:20;;;;;;;46.40;29.20;;;;;;;3.61;100.00;101989.78;5013594;28;20237;-83
2023/04/09 07:35:46;;;;;;;44.80;28.70;;;;;;;3.69;100.00;101988.81;5014682;28;20214;-82
2023/04/09 07:38:13;;;;;;;42.67;26.87;;;;;;;3.79;100.00;101984.28;5005033;28;20790;-82
2023/04/09 07:40:39;;;;;;;45.47;28.30;;;;;;;3.87;100.00;101982.41;5004587;28;20863;-81
2023/04/09 07:43:07;;;;;;;49.40;28.77;;;;;;;3.98;100.00;101990.16;5011473;28;20207;-83
2023/04/09 07:45:34;;;;;;;47.07;28.13;;;;;;;4.07;100.00;101990.91;5010608;28;20203;-84
2023/04/09 07:48:00;;;;;;;50.23;31.03;;;;;;;4.15;100.00;101994.28;5010317;28;20258;-82
2023/04/09 07:50:27;;;;;;;53.37;31.13;;;;;;;4.25;100.00;101994.16;5010042;28;20804;-81
2023/04/09 07:52:53;;;;;;;51.97;30.70;;;;;;;4.36;100.00;101992.19;5001010;28;20227;-81
2023/04/09 07:55:20;;;;;;;52.93;30.17;;;;;;;4.44;100.00;101987.69;5009250;28;20208;-81
2023/04/09 07:57:47;;;;;;;48.93;29.03;;;;;;;4.54;100.00;101986.63;5008634;28;20235;-81
2023/04/09 08:00:16;;;;;;;52.50;30.07;;;;;;;4.65;100.00;101995.22;5005948;28;20207;-83
2023/04/09 08:02:43;;;;;;;50.90;29.17;;;;;;;4.74;100.00;101988.91;5016346;28;20211;-81
2023/04/09 08:05:09;;;;;;;51.97;29.33;;;;;;;4.83;100.00;101979.06;5015212;28;20634;-82
2023/04/09 08:07:36;;;;;;;59.10;29.73;;;;;;;4.94;100.00;101980.63;5014341;28;20223;-81
2023/04/09 08:10:03;;;;;;;47.17;28.73;;;;;;;5.03;100.00;101981.31;5009337;28;20225;-81
2023/04/09 08:12:30;;;;;;;57.27;27.87;;;;;;;5.12;100.00;101980.28;5016232;28;20280;-82
2023/04/09 08:14:57;;;;;;;50.50;28.30;;;;;;;5.21;100.00;101972.16;5017131;28;20224;-81
2023/04/09 08:17:26;;;;;;;48.93;28.63;;;;;;;5.30;100.00;101982.53;5008291;28;20223;-82
2023/04/09 08:19:52;;;;;;;50.23;27.90;;;;;;;5.39;100.00;101970.91;5015516;28;20231;-81
2023/04/09 08:22:19;;;;;;;52.63;28.87;;;;;;;5.46;100.00;101975.16;5018340;28;20699;-81
2023/04/09 08:24:51;;;;;;;52.27;27.87;;;;;;;5.52;100.00;101972.41;5011515;28;20199;-81
2023/04/09 08:27:17;;;;;;;51.60;28.13;;;;;;;5.63;100.00;101977.44;5013181;28;20226;-81
2023/04/09 08:29:44;;;;;;;49.27;24.37;;;;;;;5.71;100.00;101973.75;5004867;28;20775;-83
2023/04/09 08:32:11;;;;;;;55.60;26.87;;;;;;;5.78;100.00;101977.09;5006164;28;20223;-83
2023/04/09 08:34:39;;;;;;;51.57;26.10;;;;;;;5.88;100.00;101976.91;5010990;28;20214;-83
2023/04/09 08:37:06;;;;;;;50.17;26.50;;;;;;;5.96;100.00;101976.72;5015854;28;20225;-83
2023/04/09 08:39:32;;;;;;;57.10;25.23;;;;;;;6.05;100.00;101975.66;5012170;28;20297;-83
2023/04/09 08:42:00;;;;;;;45.50;25.70;;;;;;;6.12;100.00;101971.94;5014418;28;20215;-84
2023/04/09 08:44:27;;;;;;;50.53;25.40;;;;;;;6.18;100.00;101977.97;5010282;28;20213;-83
2023/04/09 08:46:54;;;;;;;47.60;24.67;;;;;;;6.23;100.00;101975.22;5015079;28;20233;-83
2023/04/09 08:49:21;;;;;;;44.30;24.33;;;;;;;6.30;100.00;101981.22;5010465;28;20211;-83
2023/04/09 08:51:49;;;;;;;49.67;25.53;;;;;;;6.35;100.00;101987.25;5013265;28;20257;-83
2023/04/09 08:54:18;;;;;;;45.77;24.83;;;;;;;6.40;100.00;101988.03;5008283;28;20661;-83
2023/04/09 08:56:45;;;;;;;47.37;24.30;;;;;;;6.45;100.00;101981.69;5008127;28;20231;-83
2023/04/09 08:59:15;;;;;;;48.47;25.00;;;;;;;6.51;100.00;101985.97;5015950;28;20291;-83
2023/04/09 09:01:42;;;;;;;47.93;25.30;;;;;;;6.57;100.00;101977.88;5010925;28;20198;-83
2023/04/09 09:04:09;;;;;;;46.93;24.40;;;;;;;6.63;100.00;101980.34;5012094;28;20213;-83
2023/04/09 09:06:37;;;;;;;47.10;25.90;;;;;;;6.66;100.00;101969.69;5015353;28;20253;-84
2023/04/09 09:09:07;;;;;;;44.43;24.10;;;;;;;6.74;100.00;101975.66;5010757;28;20302;-83
2023/04/09 09:11:34;;;;;;;47.27;24.97;;;;;;;6.80;100.00;101962.28;5019168;28;20230;-83
2023/04/09 09:14:02;;;;;;;43.93;24.20;;;;;;;6.88;100.00;101965.56;5014384;28;20207;-84
2023/04/09 09:16:29;;;;;;;43.83;24.83;;;;;;;6.97;100.00;101969.75;5017150;28;20215;-85
2023/04/09 09:18:56;;;;;;;45.33;24.77;;;;;;;7.04;100.00;101973.97;5015885;28;20210;-84
2023/04/09 09:21:23;;;;;;;43.27;24.00;;;;;;;7.08;100.00;101969.44;5018914;28;20267;-84
2023/04/09 09:23:50;;;;;;;46.57;26.00;;;;;;;7.10;100.00;101959.69;5018841;28;20282;-83
2023/04/09 09:26:23;;;;;;;42.10;24.73;;;;;;;7.16;100.00;101964.81;5019655;28;20214;-83
2023/04/09 09:28:50;;;;;;;45.93;27.03;;;;;;;7.18;100.00;101971.78;5011132;28;20783;-82
2023/04/09 09:31:19;;;;;;;61.27;30.90;;;;;;;7.23;100.00;101971.66;5008724;28;20215;-83
2023/04/09 09:33:47;;;;;;;60.10;31.90;;;;;;;7.23;100.00;101961.06;5010256;28;20292;-82
2023/04/09 09:36:13;;;;;;;60.30;32.93;;;;;;;7.27;100.00;101962.72;5015750;28;20273;-83
2023/04/09 09:39:01;;;;;;;70.07;34.40;;;;;;;7.32;100.00;101963.47;5009262;28;20227;-82
2023/04/09 09:41:29;;;;;;;62.60;32.40;;;;;;;7.35;100.00;101966.00;5018646;28;20907;-82
2023/04/09 09:43:55;;;;;;;65.90;34.07;;;;;;;7.38;100.00;101967.69;5013234;28;20222;-82
2023/04/09 09:46:22;;;;;;;70.90;33.60;;;;;;;7.41;100.00;101965.84;5020405;28;20713;-83
2023/04/09 09:48:49;;;;;;;74.03;33.37;;;;;;;7.44;100.00;101968.41;5009119;28;20226;-82
2023/04/09 09:51:16;;;;;;;69.17;34.63;;;;;;;7.46;100.00;101957.75;5014418;28;20202;-82
2023/04/09 09:53:45;;;;;;;74.47;33.40;;;;;;;7.47;100.00;101965.66;5012050;28;20229;-83
2023/04/09 09:56:16;;;;;;;63.47;32.27;;;;;;;7.49;99.73;101969.16;5011064;28;20225;-83
2023/04/09 09:58:50;;;;;;;73.83;32.80;;;;;;;7.52;98.91;101971.72;5011934;28;20255;-82
2023/04/09 10:01:19;;;;;;;69.63;33.00;;;;;;;7.55;98.91;101973.38;5013062;28;20198;-84
2023/04/09 10:03:47;;;;;;;67.97;31.47;;;;;;;7.56;98.04;101970.69;5017460;28;20203;-82
2023/04/09 10:06:14;;;;;;;71.23;32.53;;;;;;;7.59;97.84;101967.94;5020509;28;21817;-82
2023/04/09 10:08:42;;;;;;;74.23;32.83;;;;;;;7.62;97.58;101970.50;5012399;28;20270;-82
2023/04/09 10:11:11;;;;;;;71.77;34.43;;;;;;;7.71;97.33;101965.81;5012453;28;20237;-82
2023/04/09 10:13:40;;;;;;;70.40;34.37;;;;;;;7.74;96.67;101968.38;5016036;28;20223;-83
2023/04/09 10:16:10;;;;;;;68.10;32.80;;;;;;;7.75;96.58;101971.00;5012684;28;20207;-84
2023/04/09 10:18:36;;;;;;;64.30;29.67;;;;;;;7.80;96.51;101962.91;5012452;28;20294;-83
2023/04/09 10:21:10;;;;;;;63.37;29.80;;;;;;;7.86;95.87;101960.94;5013465;28;20206;-83
2023/04/09 10:23:39;;;;;;;58.77;28.87;;;;;;;7.92;96.14;101955.41;5023122;28;20209;-83
2023/04/09 10:26:06;;;;;;;60.50;30.63;;;;;;;8.01;95.72;101952.50;5010935;28;20210;-84
2023/04/09 10:28:32;;;;;;;57.20;28.80;;;;;;;8.09;95.92;101954.88;5011952;28;20231;-83
2023/04/09 10:31:00;;;;;;;56.27;28.20;;;;;;;8.13;94.75;101951.22;5013411;28;20205;-84
2023/04/09 10:33:29;;;;;;;57.03;28.40;;;;;;;8.20;93.91;101951.91;5024055;28;20235;-84
2023/04/09 10:36:00;;;;;;;66.73;32.20;;;;;;;8.27;93.95;101946.31;5011374;28;20235;-83
2023/04/09 10:38:37;;;;;;;65.87;34.37;;;;;;;8.33;92.84;101932.88;5018523;28;21499;-83
2023/04/09 10:41:15;;;;;;;68.63;35.37;;;;;;;8.38;92.33;101926.56;5021904;28;20270;-83
2023/04/09 10:43:42;;;;;;;66.93;33.27;;;;;;;8.50;91.49;101923.47;5020422;28;20215;-84
2023/04/09 10:46:28;;;;;;;69.37;34.77;;;;;;;8.58;90.43;101916.13;5011375;28;20214;-83
2023/04/09 10:49:12;;;;;;;63.77;33.63;;;;;;;8.69;88.51;101920.13;5017600;28;20218;-83
2023/04/09 10:51:47;;;;;;;69.93;33.93;;;;;;;8.83;88.32;101924.94;5009719;28;20207;-83
2023/04/09 10:54:37;;;;;;;68.83;33.30;;;;;;;8.98;87.26;101921.72;5026834;28;20234;-84
2023/04/09 10:57:12;;;;;;;62.80;33.67;;;;;;;9.06;85.96;101924.13;5023521;28;20234;-84
2023/04/09 10:59:46;;;;;;;63.33;34.17;;;;;;;9.11;84.38;101921.31;5016765;28;20214;-84
2023/04/09 11:02:48;;;;;;;68.53;35.93;;;;;;;9.15;83.73;101923.75;5015512;28;20207;-84
2023/04/09 11:05:36;;;;;;;54.73;31.50;;;;;;;9.18;82.64;101914.81;4999303;28;20211;-82
2023/04/09 11:08:07;;;;;;;64.10;35.03;;;;;;;9.20;81.56;101915.63;5011868;28;20238;-83
2023/04/09 11:10:33;;;;;;;64.83;34.13;;;;;;;9.28;81.59;101916.22;5021035;28;20258;-84
2023/04/09 11:13:00;;;;;;;63.13;34.83;;;;;;;9.33;80.69;101917.75;5015331;28;20237;-83